Hors Challenge

Le Jogging Des 3 Lieues - Braine-Le-Comte (5.00 km)

samedi 04 janvier 2020

 
LE JOGGING DES 3 LIEUES - BRAINE-LE-COMTE
DISTANCE 5.00 km
samedi 04 janvier 2020
 
Place dos NOM Equipe Catégorie Pl/cat temps temps/km Vitesse
01:00:00                
1 2469 BRUSTEN CHARLES BRUSTEAM SE 1 0:16:54 03:23 17.75
2 2401 WARNON LAURENT TRAKKS / PHACO SE 2 0:17:32 03:30 17.11
3 2415 BLAIRON YANN C.S.PAYS VERT EH 1 0:17:59 03:36 16.68
4 2476 FORMULE AMAURY - SE 3 0:18:00 03:36 16.67
5 2428 MINET JIMMY E.T.ENGHIEN SE 4 0:18:02 03:36 16.64
6 2470 JOBKEN OLIVIER WETRAIL V1 1 0:18:08 03:38 16.54
7 2574 BOLHANDIA SAID - SE 5 0:18:27 03:41 16.26
8 2462 KESTENS LORY HAC SE 6 0:18:43 03:45 16.03
9 2403 MALCOURANT KEEVIN CRAC / PHACO SE 7 0:19:24 03:53 15.46
10 2402 DAMBRUN JORDAN - SE 8 0:19:27 03:53 15.42
11 2413 RICOUR HERVE - V1 2 0:19:37 03:55 15.29
12 2416 SCARSO FLORENT - V1 3 0:19:54 03:59 15.08
13 2446 MENU GERALD JET V1 4 0:19:54 03:59 15.08
14 2459 TEGAS GIOVANNI - V2 1 0:20:06 04:01 14.93
15 2418 STANDAERT DAVY JOGGING SAINTES V1 5 0:20:17 04:03 14.79
16 2496 DOBBELS HECTOR HAC EH 2 0:20:23 04:05 14.72
17 2421 STANDAERT GEERT JOGGING SAINTES SE 9 0:20:24 04:05 14.71
18 1146 SCHOONHEYT NICOLAS JT BESONRIEUX SE 10 0:20:29 04:06 14.65
19 2407 SONCK JOZEF - V2 2 0:20:33 04:07 14.60
20 2550 NAHON EMILE TTR JH 1 0:20:39 04:08 14.53
21 2411 PIRET PAUL F.C.CASTEAU V4 1 0:20:59 04:12 14.30
22 2437 CARTON FREDERIC SAINT-GHISLAIN TRIAT V1 6 0:21:00 04:12 14.29
23 2244 LOLEKONDA HENOC RSB U14 JH 2 0:21:01 04:12 14.27
24 2214 MARCELIS NATHAN RSB U13 JH 3 0:21:01 04:12 14.27
25 2239 LEBRUN MAXIME RSB U14 JH 4 0:21:02 04:12 14.26
26 1506 HSIA HUGO COACHING ZONE TEAM JH 5 0:21:04 04:13 14.24
27 2478 HADJ WESLEY - JH 6 0:21:09 04:14 14.18
28 1311 GALLUCCIO ANTONIO ESM V3 1 0:21:15 04:15 14.12
29 2426 GHYSELS STEVEN - SE 11 0:21:20 04:16 14.06
30 2400 BERTAU TIMOTHE - EH 3 0:21:43 04:21 13.81
31 2274 BOUGHRIF NASSIM RSB U15 JH 7 0:21:54 04:23 13.70
32 2294 VAN BRAEKEL LUDO RSB U15 JH 8 0:21:58 04:24 13.66
33 2258 SELS SAMY RSB U14 JH 9 0:22:11 04:26 13.52
34 2207 LENGELE THEO RSB U13 JH 10 0:22:19 04:28 13.44
35 2526 DHOLANDER GREG WETRAIL SE 12 0:22:22 04:28 13.41
36 2152 MBANG SOKO RSB U12 JH 11 0:22:28 04:30 13.35
37 2455 TRIBOLET CELINE JCPMF FLAWINNE A1 1 0:22:30 04:30 13.33
38 2483 LEFEBVRE PAULIN GROUPE GOBERT RUNNIN SE 13 0:22:46 04:33 13.18
39 2592 JANSSENS LYDIA VERTIGO JD 1 0:22:51 04:34 13.13
40 2431 MINNE TOM - EH 4 0:22:53 04:35 13.11
41 2409 SONCK JEFF - JH 12 0:22:55 04:35 13.09
42 2434 MAES DAVID RSB V1 7 0:22:59 04:36 13.05
43 2279 CARDOEN NATHAN RSB U15 JH 13 0:23:18 04:40 12.88
44 1053 VAN DEN ELSEN JEAN-PIERRE BJB V4 2 0:23:22 04:40 12.84
45 2297 VERSTREPEN MAXIME RSB U15 JH 14 0:23:25 04:41 12.81
46 2231 VANDENDOOREN AXEL RSB U13 JH 15 0:23:43 04:45 12.65
47 452 ATATY CHRISTIAN JT BESONRIEUX / HAC V4 3 0:23:53 04:47 12.56
48 2223 RICOUR ROMAIN RSB U13 JH 16 0:24:13 04:51 12.39
49 1625 BOUCQ FREDERIC - V2 3 0:24:20 04:52 12.33
50 2238 JACQUET THOMAS RSB U14 JH 17 0:24:40 04:56 12.16
51 2494 DOBBELS ROBERT HAC EH 5 0:24:45 04:57 12.12
52 2410 CINCO AMELITA - A1 2 0:24:55 04:59 12.04
53 2217 NIYIBITANGA FRANKSON RSB U13 JH 18 0:25:03 05:01 11.98
54 1515 NOEL SERGE HAC V5 1 0:25:08 05:02 11.94
55 2247 MONTEL WARREN RSB U14 JH 19 0:25:27 05:05 11.79
56 2129 SIEWE MATHYS RSB U11 JH 20 0:25:35 05:07 11.73
57 2162 VOITURONT ARTHUR RSB U12 JH 21 0:25:38 05:08 11.70
58 2461 LOMBART ANAIS VDS TEAM ED 1 0:25:40 05:08 11.69
59 2451 ROOS JOEL - V2 4 0:25:44 05:09 11.66
60 2482 ARNOLDI AXELLE ET ENGHIEN JD 2 0:25:46 05:09 11.64
61 2412 BEKERS NOEL - V6 1 0:25:59 05:12 11.55
62 2490 VASTERELLA MARCO BVL V2 5 0:26:04 05:13 11.51
63 2575 THUNUS JEAN-PHILIPPE JOG-ITTRE V2 6 0:26:15 05:15 11.43
64 1138 SIRAUX LOUIS J.T.BESONRIEUX SE 14 0:26:38 05:20 11.26
65 2414 DE RASSENFOSSE JACQUES HAC V4 4 0:26:50 05:22 11.18
66 2117 FIERAIN SIMON RSB U11 JH 22 0:26:54 05:23 11.15
67 1668 DELATTRE FABRICE LES TROTINNEURS DE S V2 7 0:26:57 05:23 11.13
68 2246 MENAMA LENNY RSB U14 JH 23 0:26:59 05:24 11.12
69 2448 BRANCATO GIANNI - V1 8 0:27:00 05:24 11.11
70 2201 DUVIVIER EMILIEN RSB U13 JH 24 0:27:06 05:25 11.07
71 2145 JACQUET RAPHAEL RSB U12 JH 25 0:27:10 05:26 11.04
72 2591 SALINGROS FREDERIC TROTTIGNEURS DE SOIG V1 9 0:27:19 05:28 10.98
73 1045 DEMARETS JOEL NAC V4 5 0:27:36 05:31 10.87
74 1017 DERUYTER DIDIER JT BESONRIEUX V4 6 0:27:41 05:32 10.84
75 3479 LIBION MARC JCPMF FLAWINNE V2 8 0:27:44 05:33 10.82
76 2489 DECROES AUDREY VDS TEAM A1 3 0:27:44 05:33 10.82
77 1806 SPELMANS MELLINA - JD 3 0:27:46 05:33 10.80
78 2144 JACQUET NATHAN RSB U12 JH 26 0:27:49 05:34 10.78
79 2436 DESCHAMPS SABRINA OBJ A2 1 0:27:59 05:36 10.72
80 2155 MONTEL CAMERON RSB U12 JH 27 0:28:02 05:36 10.70
81 2488 WIELEMANS MELANIE THEODO TEMPO A2 2 0:28:04 05:37 10.69
82 2458 LAURENT ALAIN - V3 2 0:28:07 05:37 10.67
83 2594 COPPEWOULLE JEAN-PHILIPPE - V2 9 0:28:17 05:39 10.61
84 2222 REGOUT MATTEO RSB U13 JH 28 0:28:19 05:40 10.59
85 1054 MIESSE DANY NAC/JC ESTINNES V4 7 0:28:25 05:41 10.56
86 2472 MORIAU SYLVIE - A2 3 0:28:26 05:41 10.55
87 2587 PIRET TITOUAN - JH 29 0:28:30 05:42 10.53
88 2586 PEREZ SILVIA - A1 4 0:28:30 05:42 10.53
89 2423 LAMBILLOTTE FRED - SE 15 0:28:31 05:42 10.52
90 1165 VANDERVOORT MICHELINE - A5 1 0:28:34 05:43 10.50
91 2252 REI DA COSTA CRISTANO RSB U14 JH 30 0:28:36 05:43 10.49
92 2233 ANDRE ANGELO RSB U14 JH 31 0:28:38 05:44 10.48
93 2449 CHIFFOT HUGHES RSB V1 10 0:28:40 05:44 10.47
94 2424 KINKIN CARO - DA 1 0:28:45 05:45 10.43
95 1809 SPELMANS SOFIA - JD 4 0:28:58 05:48 10.36
96 2473 BRANTEGHEM VINCENT - SE 16 0:29:20 05:52 10.23
97 2484 PASTEEL MELINE - DA 2 0:29:24 05:53 10.20
98 2485 AUQUIER NICOLAS LES TROTTINEURS DE S SE 17 0:29:25 05:53 10.20
99 2438 VANDERHAEGEN CHRISTIAN HAC V3 3 0:29:29 05:54 10.18
100 2221 RAUX SAMY RSB U13 JH 32 0:29:36 05:55 10.14
101 2486 CARDOEN THEA - JD 5 0:29:38 05:56 10.12
102 2468 LEFEBVRE ELODIE - A1 5 0:29:46 05:57 10.08
103 2292 TRICOUX ETHAN RSB U15 JH 33 0:29:56 05:59 10.02
104 2288 FERNANDEZ RAFAEL RSB U15 JH 34 0:29:59 06:00 10.01
105 2284 DESMET LUCA RSB U15 JH 35 0:29:59 06:00 10.01
106 1649 CHIECO DOMINIQUE - V2 10 0:30:03 06:01 9.98
107 2524 VINCENT CATHERINE - A4 1 0:30:04 06:01 9.98
108 2290 ROUSSEAU LAURENCE G.GOBERT RUNING TEAM A1 6 0:30:07 06:01 9.96
109 2112 DIAW OMAR RSB U11 JH 36 0:30:08 06:02 9.96
110 2440 FRAITURE THEO THEODO TEMPO JH 37 0:30:09 06:02 9.95
111 2467 MINNE LAURELINE - DA 3 0:30:10 06:02 9.94
112 2589 DELIGNE MATHILDE - DA 4 0:30:15 06:03 9.92
113 2570 VANDENBERGHE CATHERINE ET ENGHIEN A3 1 0:30:17 06:03 9.91
114 2475 COLUSSI CHRISTINE JTB A1 7 0:30:21 06:04 9.88
115 2590 VANVEUREN ANNE-SOPHIE - DA 5 0:30:22 06:04 9.88
116 2287 EMPAIN JULIEN RSB U15 JH 38 0:30:22 06:04 9.88
117 2474 MAMMEI FULVIO JTB V3 4 0:30:22 06:04 9.88
118 2285 DUTILLIEUX TOINE RSB U15 JH 39 0:30:23 06:05 9.87
119 2151 MARCOUX LOUIS RSB U12 JH 40 0:30:25 06:05 9.86
120 2435 HARVENT JEAN-CLAUDE JT BESONRIEUX V3 5 0:30:27 06:05 9.85
121 2427 MAUS MADELEINE NAC A4 2 0:30:34 06:07 9.81
122 2598 LOMBART VALENTINE VDS TEAM JD 6 0:30:57 06:11 9.69
123 2596 LOMBART DIMITRI VDS TEAM V1 11 0:31:03 06:13 9.66
124 2457 LOMBART OLIVIA VDS TEAM JD 7 0:31:18 06:16 9.58
125 2224 STEENBERGEN LUCAS RSB U13 JH 41 0:31:24 06:17 9.55
126 1049 LAMBERT BERNADETTE ACLO/JT BESONRIEUX A6 1 0:31:27 06:17 9.54
127 2573 LESOIL MICHELLE - A2 4 0:31:32 06:18 9.51
128 2121 PETTIAUX MAXIME RSB U11 JH 42 0:31:36 06:19 9.49
129 2103 BOUGHRIF MOHAMED RSB U11 JH 43 0:31:37 06:19 9.49
130 2105 CARAPINHEIRO MAYAAN SANTOS RSB U11 JH 44 0:31:37 06:19 9.49
131 2230 VANDENABEELE THEO RSB U13 JH 45 0:31:39 06:20 9.48
132 2499 SLJAPIC VIOLETTA FER A2 5 0:31:40 06:20 9.47
133 2405 VANDENABEELE INES RSB JD 8 0:31:50 06:22 9.42
134 2487 SAROT FABRICE J.T.BESONRIEUX V2 11 0:32:02 06:24 9.37
135 2495 BRUXELMANE MARC HAC V6 2 0:32:04 06:25 9.36
136 2481 EPPE MARIE-CHRISTINE ET ENGHIEN A4 3 0:32:15 06:27 9.30
137 2577 BROGNA BASTIEN - SE 18 0:32:16 06:27 9.30
138 2167 DEMOL DEMKO RSB U13 JH 46 0:32:22 06:28 9.27
139 2493 DECAMPS PIERRE - SE 19 0:32:22 06:28 9.27
140 2202 GAILLY ANTOINE RSB U13 JH 47 0:32:22 06:28 9.27
141 1675 VANNOORENBERGHE PHILIPPE - V2 12 0:32:26 06:29 9.25
142 2441 RENDERS ANNE - A4 4 0:32:27 06:29 9.24
143 2159 SELS IDRISS RSB U12 JH 48 0:32:30 06:30 9.23
144 1977 SCHOUPPE ANITA AXA TEAM A6 2 0:32:32 06:30 9.22
145 2479 LECLERE RUDY - V3 6 0:32:33 06:31 9.22
146 2471 FORGES DELPHINE - A2 6 0:32:36 06:31 9.20
147 2445 DE VILLE SABRINA JET A2 7 0:32:42 06:32 9.17
148 1011 DANIEL CHRISTIANE J.C.ESTINNES / HAC A5 2 0:32:48 06:34 9.15
149 2456 HOUTRELLE MARCEL BVL V6 3 0:32:59 06:36 9.10
150 2599 TRUPIA CLAUDIA - DA 6 0:33:25 06:41 8.98
151 2492 NEVEN NADINE BVL A3 2 0:33:30 06:42 8.96
152 1206 COPOIS MARIE-FRANÇOISE JT BESONRIEUX A4 5 0:33:43 06:45 8.90
153 2525 BAJRAMOUIC SHANA JT BESONRIEUX ED 2 0:33:44 06:45 8.89
154 2253 SCICHILONE HUGO RSB U14 JH 49 0:33:50 06:46 8.87
155 1509 MOLLE-HSIA BENEDICTE COACHING ZONE TEAM A1 8 0:34:01 06:48 8.82
156 2442 AUDRIT ALICE - JD 9 0:34:11 06:50 8.78
157 2460 LOUIS CAROLE FER A2 8 0:34:21 06:52 8.73
158 2571 DESCAMPS SABRA FER A2 9 0:34:22 06:52 8.73
159 2498 LYSY TIMOTHEE HAC SE 20 0:34:24 06:53 8.72
160 1650 ROUSSEAU NATHALIE NAC A2 10 0:35:12 07:02 8.52
161 2600 ROLAND AMELIE THEODO TEMPO DA 7 0:35:23 07:05 8.48
162 2463 ROLAND CORALIE THEODO TEMPO DA 8 0:35:24 07:05 8.47
163 2465 CHIVOT QUENTIN THEODO TEMPO SE 21 0:35:24 07:05 8.47
164 2432 TONSENT SARIA - A2 11 0:35:43 07:09 8.40
165 1825 POLAIN JEAN-CLAUDE HAC/LA FORESTIÈRE V6 4 0:35:45 07:09 8.39
166 2491 GEEROMS SHAUNI BVL DA 9 0:35:52 07:10 8.36
167 1230 LOONEN WILLEM BVL V5 2 0:36:00 07:12 8.33
168 1333 BEELEN LLISETTE BVL A6 3 0:36:20 07:16 8.26
169 2593 HORLAIT MADISON - DA 10 0:36:27 07:17 8.23
170 2477 BERLAND OPHELIE TROTTIGNEURS DE SOIG DA 11 0:36:34 07:19 8.20
171 2497 ANTOINE JOELLE - A3 3 0:37:08 07:26 8.08
172 2433 CALIGIONE CARINE HAC A3 4 0:37:15 07:27 8.05
173 2422 BESSEM MICHAEL - SE 22 0:37:27 07:29 8.01
174 2585 LOHR HELENA - DA 12 0:38:02 07:36 7.89
175 2443 ETONNDIA RYAN - JH 50 0:39:10 07:50 7.66
176 2572 VAN DENBULLCKE SOPHIE - DA 13 0:39:53 07:59 7.52
177 1309 PILLEZ JEAN- PIERRE CRAC V3 7 0:40:04 08:01 7.49
178 1296 MOREAU PATRICK RRB V2 13 0:40:08 08:02 7.48
179 1204 NUYTTEN FLORENCE JTB A1 9 0:41:18 08:16 7.26
180 1090 LENAERTS VALERIE JT BESONRIEUX A2 12 0:41:18 08:16 7.26
181 2417 BYUKUSENGE EMMA - DA 14 0:45:34 09:07 6.58
182 2164 BAECK QUENTIN RSB U13 JH 51 0:45:37 09:07 6.58
183 2225 SWAELENS BASTIEN RSB U13 JH 52 0:46:10 09:14 6.50
184 2406 SWAELENS LUCAS - JH 53 0:46:25 09:17 6.46
185 2268 VANDENBERGHE MAXIME RSB U14 JH 54 0:47:37 09:31 6.30
186 2235 DE DIOS PABLO RSB U14 JH 55 0:47:38 09:32 6.30
187 2588 LANNOY BERNARD - V3 8 0:48:12 09:38 6.22
188 902 GAMME DORIANE G.GOBERT RUNING TEAM DA 15 0:53:01 10:36 5.66
189 1976 BODDEN LUCIE LES TROTTINNEURS DE JD 10 0:53:06 10:37 5.65
190 1983 BODDEN LAURA LES TROTINNEURS DE S JD 11 00:53:08 10:38 5.65
191 903 BESSENS ANAIS LES TROTTINEURS DE S JD 12 00:53:10 10:38 5.64
192 1975 BASTENIER LAURENCE LES TROTTINEURS DE S A1 10 00:53:12 10:38 5.64
193 1275 CEUPPENS PATRICK BVL V3 9 01:12:08 14:26 4.16
194 3385 HEUSDAINS MEDHI - SE 23 00:48:16 09:39 6.22
195 3324 CATTEAU MARGAUX ACLO JD 13 00:48:45 09:45 6.15
196 3322 LEJEUNE CAROLINE ACLO A1 11 00:48:46 09:45 6.15
197 3382 DANEAU THOMAS VITALITÉ BINCHE SE 24 00:48:48 09:46 6.15
198 3337 DECOCK THIBAULT PAC RUN SE 25 00:48:50 09:46 6.14
199 354 DELHELLE NANCY ACLO A2 13 00:49:09 09:50 6.10
200 3137 INNOCENTE GINO - V1 12 00:49:26 09:53 6.07
201 1649 CHIECO DOMINIQUE - V2 14 00:49:28 09:54 6.06
202 467 DE LUYCK FEMKE - DA 16 00:49:31 09:54 6.06
203 3339 NIEHE INGRID - A2 14 00:49:38 09:56 6.04
204 3100 STASSIN PATRICIA VITALITÉ BINCHE A2 15 00:49:39 09:56 6.04
205 1475 LESOIL MICHELLE - A1 12 00:49:53 09:59 6.01
206 3335 CHERON MARIANNE VITALITÉ BINCHE A2 16 00:49:53 09:59 6.01
207 3030 MONNEUX RUDY LES INDEPENDANTS V2 15 00:50:25 10:05 5.95
208 3032 BRIQUELET LEON LES INDEPENDANTS V2 16 00:50:26 10:05 5.95
209 3024 HOUSSIER COLETTE - A3 5 00:50:37 10:07 5.93
210 3023 POELAERT AMBRE FRT BINCHE JD 14 00:51:05 10:13 5.87
211 3309 DUMONT INES FRT BINCHE A1 13 00:51:07 10:13 5.87
212 1037 TERRIBILE MAURICE - V5 3 00:51:18 10:16 5.85
213 3194 TOUSSAINT KATTY - A2 17 00:51:18 10:16 5.85
214 3083 LATTEUR ADRIEN - SE 26 00:51:34 10:19 5.82
215 68 BAILLY JEAN-PHILIPPE VITALITÉ BINCHE V2 17 00:51:44 10:21 5.80
216 3334 PILATE CHRISTOPHE ZATAC V2 18 00:51:44 10:21 5.80
217 74 BAUDOUX ARNAUD VITALITÉ BINCHE V1 13 00:51:44 10:21 5.80
218 1242 LE BAILLY VALERIE VITALITÉ BINCHE A1 14 00:51:45 10:21 5.80
219 3010 TILTE JOELLE VITALITÉ BINCHE A1 15 00:51:45 10:21 5.80
220 497 BILLOT PIERRE ESM / ZONARDS LOB. V2 19 00:51:47 10:21 5.79
221 275 DURANT ANNE-SOPHIE - A1 16 00:51:48 10:22 5.79
222 3130 PARTICIPANT T21 T21 T21 1 00:51:48 10:22 5.79
223 735 BAUDOUX CYRIL - EH 6 00:51:49 10:22 5.79
224 3331 VANNORENBERGHE PHILIPPE - V2 20 00:52:05 10:25 5.76
225 1060 CARLIER VERONIQUE - A2 18 00:52:14 10:27 5.74
226 3113 PARMENTIER CINDY - A1 17 00:52:41 10:32 5.69
227 3028 DUMONT NADINE VITALITÉ BINCHE A2 19 00:53:16 10:39 5.63
228 3132 PARTICIPANT T21 T21 T21 2 00:53:25 10:41 5.62
229 3338 TAHON GEORGETTE - A2 20 00:53:56 10:47 5.56
230 413 MATTIOLI JEAN-MARIE JC BRACQ V3 10 00:54:18 10:52 5.52
231 3389 VAN BIESEN JULIE - DA 17 00:54:56 10:59 5.46
232 338 DESCAMPS VERONIQUE JC BRACQ A2 21 00:55:01 11:00 5.45
233 3124 TOTIN GEORGES - V6 5 00:56:03 11:13 5.35
234 1415 LEROY PAULETTE JC ESTINNES/LES ZONA A5 3 00:56:11 11:14 5.34
235 3320 LELOIR CARINE - A2 22 00:56:53 11:23 5.27
236 3154 WILLIAME WALLACE ACLO JH 56 00:57:26 11:29 5.22
237 3150 DARDENNE THALON ACLO JH 57 00:57:26 11:29 5.22
238 3035 DELATTRE MAGALIE - A1 18 00:57:28 11:30 5.22
239 3036 DELPORTE RACHEL ACLO JD 15 00:57:28 11:30 5.22
240 3153 WILLIAME TAATYANA ACLO DA 18 00:57:29 11:30 5.22
241 3139 ROUSSEAU MARYLENE ACLO A1 19 00:57:29 11:30 5.22